createdAt,value
2022-10-22T00:00:55.701Z,100.00
2022-10-22T00:03:22.139Z,100.00
2022-10-22T00:05:48.474Z,100.00
2022-10-22T00:08:14.951Z,100.00
2022-10-22T00:10:41.313Z,100.00
2022-10-22T00:13:07.762Z,100.00
2022-10-22T00:15:34.147Z,100.00
2022-10-22T00:18:00.486Z,100.00
2022-10-22T00:20:26.876Z,100.00
2022-10-22T00:22:53.307Z,100.00
2022-10-22T00:25:19.780Z,100.00
2022-10-22T00:27:46.169Z,100.00
2022-10-22T00:30:12.840Z,100.00
2022-10-22T00:32:39.696Z,100.00
2022-10-22T00:35:07.193Z,100.00
2022-10-22T00:37:33.654Z,100.00
2022-10-22T00:40:00.214Z,100.00
2022-10-22T00:42:29.291Z,100.00
2022-10-22T00:45:09.812Z,100.00
2022-10-22T00:48:07.315Z,100.00
2022-10-22T00:50:38.012Z,100.00
2022-10-22T00:53:08.051Z,100.00
2022-10-22T00:55:35.159Z,100.00
2022-10-22T00:58:02.216Z,100.00
2022-10-22T01:00:28.842Z,100.00
2022-10-22T01:02:55.897Z,100.00
2022-10-22T01:05:22.811Z,100.00
2022-10-22T01:07:52.405Z,100.00
2022-10-22T01:11:03.105Z,100.00
2022-10-22T01:14:04.509Z,100.00
2022-10-22T01:16:59.028Z,100.00
2022-10-22T01:19:47.878Z,100.00
2022-10-22T01:22:34.300Z,100.00
2022-10-22T01:25:13.214Z,100.00
2022-10-22T01:27:47.625Z,100.00
2022-10-22T01:30:15.775Z,100.00
2022-10-22T01:33:01.026Z,100.00
2022-10-22T01:38:08.803Z,100.00
2022-10-22T01:40:36.403Z,100.00
2022-10-22T01:43:05.373Z,100.00
2022-10-22T01:45:39.636Z,100.00
2022-10-22T01:48:14.118Z,100.00
2022-10-22T01:50:55.991Z,100.00
2022-10-22T01:53:40.702Z,100.00
2022-10-22T01:56:10.085Z,100.00
2022-10-22T01:58:39.702Z,100.00
2022-10-22T02:01:32.581Z,100.00
2022-10-22T02:04:08.479Z,100.00
2022-10-22T02:06:39.029Z,100.00
2022-10-22T02:09:07.786Z,100.00
2022-10-22T02:11:34.882Z,100.00
2022-10-22T02:14:04.914Z,100.00
2022-10-22T02:16:43.316Z,100.00
2022-10-22T02:19:19.781Z,100.00
2022-10-22T02:21:46.234Z,100.00
2022-10-22T02:24:13.114Z,100.00
2022-10-22T02:26:48.054Z,100.00
2022-10-22T02:29:22.469Z,100.00
2022-10-22T02:31:52.183Z,100.00
2022-10-22T02:34:24.146Z,100.00
2022-10-22T02:36:52.023Z,100.00
2022-10-22T02:39:20.858Z,100.00
2022-10-22T02:41:48.381Z,100.00
2022-10-22T02:44:14.824Z,100.00
2022-10-22T02:46:43.265Z,100.00
2022-10-22T02:49:09.588Z,100.00
2022-10-22T02:51:36.006Z,100.00
2022-10-22T02:54:02.356Z,100.00
2022-10-22T02:56:29.006Z,100.00
2022-10-22T02:58:55.473Z,100.00
2022-10-22T03:01:22.026Z,100.00
2022-10-22T03:03:48.750Z,100.00
2022-10-22T03:06:15.347Z,100.00
2022-10-22T03:08:41.969Z,100.00
2022-10-22T03:11:08.564Z,100.00
2022-10-22T03:13:35.262Z,100.00
2022-10-22T03:16:01.838Z,100.00
2022-10-22T03:18:28.299Z,100.00
2022-10-22T03:21:07.908Z,100.00
2022-10-22T03:23:34.246Z,100.00
2022-10-22T03:26:00.650Z,100.00
2022-10-22T03:28:27.184Z,100.00
2022-10-22T03:30:53.512Z,100.00
2022-10-22T03:33:19.873Z,100.00
2022-10-22T03:35:47.580Z,100.00
2022-10-22T03:38:14.748Z,100.00
2022-10-22T03:40:44.273Z,100.00
2022-10-22T03:43:11.103Z,100.00
2022-10-22T03:48:05.350Z,100.00
2022-10-22T03:50:31.706Z,100.00
2022-10-22T03:52:58.204Z,100.00
2022-10-22T03:55:24.907Z,100.00
2022-10-22T03:57:51.273Z,100.00
2022-10-22T04:00:17.904Z,100.00
2022-10-22T04:02:44.247Z,100.00
2022-10-22T04:05:10.789Z,100.00
2022-10-22T04:07:37.502Z,100.00
2022-10-22T04:10:04.464Z,100.00
2022-10-22T04:12:30.819Z,100.00
2022-10-22T04:14:57.213Z,100.00
2022-10-22T04:17:23.622Z,100.00
2022-10-22T04:19:49.986Z,100.00
2022-10-22T04:22:16.372Z,100.00
2022-10-22T04:24:42.738Z,100.00
2022-10-22T04:27:09.187Z,100.00
2022-10-22T04:29:35.654Z,100.00
2022-10-22T04:32:02.026Z,100.00
2022-10-22T04:34:28.871Z,100.00
2022-10-22T04:36:55.717Z,100.00
2022-10-22T04:39:22.173Z,100.00
2022-10-22T04:41:48.545Z,100.00
2022-10-22T04:44:17.209Z,100.00
2022-10-22T04:46:44.752Z,100.00
2022-10-22T04:49:11.104Z,100.00
2022-10-22T04:51:37.656Z,100.00
2022-10-22T04:54:04.292Z,100.00
2022-10-22T04:56:31.826Z,100.00
2022-10-22T04:59:03.890Z,100.00
2022-10-22T05:01:33.910Z,100.00
2022-10-22T05:04:02.863Z,100.00
2022-10-22T05:06:31.316Z,100.00
2022-10-22T05:09:03.353Z,100.00
2022-10-22T05:11:33.828Z,100.00
2022-10-22T05:14:01.849Z,100.00
2022-10-22T05:16:29.653Z,100.00
2022-10-22T05:18:58.704Z,100.00
2022-10-22T05:21:25.278Z,100.00
2022-10-22T05:23:52.138Z,100.00
2022-10-22T05:26:20.122Z,100.00
2022-10-22T05:28:47.843Z,100.00
2022-10-22T05:31:14.823Z,100.00
2022-10-22T05:33:41.763Z,100.00
2022-10-22T05:36:10.635Z,100.00
2022-10-22T05:38:37.166Z,100.00
2022-10-22T05:41:09.321Z,100.00
2022-10-22T05:43:36.027Z,100.00
2022-10-22T05:46:05.338Z,100.00
2022-10-22T05:51:05.723Z,100.00
2022-10-22T05:53:37.949Z,100.00
2022-10-22T05:56:07.886Z,100.00
2022-10-22T05:58:35.174Z,100.00
2022-10-22T06:01:16.352Z,100.00
2022-10-22T06:03:43.917Z,100.00
2022-10-22T06:06:25.883Z,100.00
2022-10-22T06:08:54.409Z,100.00
2022-10-22T06:11:22.822Z,100.00
2022-10-22T06:13:50.573Z,100.00
2022-10-22T06:16:17.234Z,100.00
2022-10-22T06:18:43.590Z,100.00
2022-10-22T06:21:12.575Z,100.00
2022-10-22T06:23:40.536Z,100.00
2022-10-22T06:26:08.457Z,100.00
2022-10-22T06:28:35.702Z,100.00
2022-10-22T06:31:03.831Z,100.00
2022-10-22T06:33:32.860Z,100.00
2022-10-22T06:36:09.706Z,100.00
2022-10-22T06:38:36.161Z,100.00
2022-10-22T06:41:08.089Z,100.00
2022-10-22T06:43:34.621Z,100.00
2022-10-22T06:46:06.016Z,100.00
2022-10-22T06:48:33.322Z,100.00
2022-10-22T06:51:04.663Z,100.00
2022-10-22T06:53:31.170Z,100.00
2022-10-22T06:55:57.768Z,100.00
2022-10-22T06:58:24.156Z,100.00
2022-10-22T07:00:50.492Z,100.00
2022-10-22T07:03:16.817Z,100.00
2022-10-22T07:05:43.150Z,100.00
2022-10-22T07:08:09.543Z,100.00
2022-10-22T07:10:35.890Z,100.00
2022-10-22T07:13:02.251Z,100.00
2022-10-22T07:15:28.663Z,100.00
2022-10-22T07:17:55.078Z,100.00
2022-10-22T07:20:21.596Z,100.00
2022-10-22T07:22:48.488Z,100.00
2022-10-22T07:25:14.947Z,100.00
2022-10-22T07:27:41.536Z,100.00
2022-10-22T07:30:08.691Z,100.00
2022-10-22T07:32:35.088Z,100.00
2022-10-22T07:35:01.412Z,100.00
2022-10-22T07:37:27.739Z,100.00
2022-10-22T07:39:54.129Z,100.00
2022-10-22T07:42:20.546Z,100.00
2022-10-22T07:44:46.943Z,100.00
2022-10-22T07:47:13.311Z,100.00
2022-10-22T07:49:39.670Z,100.00
2022-10-22T07:52:07.725Z,100.00
2022-10-22T07:54:34.123Z,100.00
2022-10-22T07:57:00.612Z,100.00
2022-10-22T07:59:27.277Z,100.00
2022-10-22T08:01:53.669Z,100.00
2022-10-22T08:04:20.204Z,100.00
2022-10-22T08:06:47.481Z,100.00
2022-10-22T08:09:14.514Z,100.00
2022-10-22T08:11:41.014Z,100.00
2022-10-22T08:14:07.393Z,100.00
2022-10-22T08:16:33.721Z,100.00
2022-10-22T08:19:00.102Z,100.00
2022-10-22T08:21:26.751Z,100.00
2022-10-22T08:23:53.211Z,100.00
2022-10-22T08:26:19.667Z,100.00
2022-10-22T08:28:46.044Z,100.00
2022-10-22T08:31:12.748Z,100.00
2022-10-22T08:33:39.633Z,100.00
2022-10-22T08:36:06.704Z,100.00
2022-10-22T08:38:33.367Z,100.00
2022-10-22T08:41:13.104Z,100.00
2022-10-22T08:43:58.060Z,100.00
2022-10-22T08:46:33.256Z,100.00
2022-10-22T08:49:02.830Z,100.00
2022-10-22T08:51:40.311Z,100.00
2022-10-22T08:54:31.385Z,100.00
2022-10-22T08:57:08.873Z,100.00
2022-10-22T08:59:50.535Z,99.42
2022-10-22T09:02:46.650Z,99.17
2022-10-22T09:05:46.245Z,99.87
2022-10-22T09:08:14.971Z,98.65
2022-10-22T09:10:49.425Z,98.18
2022-10-22T09:13:20.081Z,97.42
2022-10-22T09:15:52.469Z,98.28
2022-10-22T09:18:33.268Z,98.08
2022-10-22T09:21:03.871Z,98.76
2022-10-22T09:23:52.019Z,98.51
2022-10-22T09:26:18.393Z,97.73
2022-10-22T09:28:50.132Z,96.62
2022-10-22T09:31:17.128Z,96.47
2022-10-22T09:33:45.778Z,96.30
2022-10-22T09:36:21.360Z,96.41
2022-10-22T09:38:51.409Z,95.00
2022-10-22T09:41:20.226Z,96.31
2022-10-22T09:43:48.027Z,95.53
2022-10-22T09:46:18.079Z,95.92
2022-10-22T09:48:50.232Z,93.83
2022-10-22T09:51:22.650Z,94.30
2022-10-22T09:54:03.268Z,93.70
2022-10-22T09:56:32.331Z,94.57
2022-10-22T09:58:58.795Z,93.93
2022-10-22T10:01:32.712Z,92.93
2022-10-22T10:04:09.853Z,92.33
2022-10-22T10:06:39.109Z,93.29
2022-10-22T10:09:17.437Z,92.78
2022-10-22T10:11:51.876Z,91.85
2022-10-22T10:14:39.370Z,92.09
2022-10-22T10:17:17.939Z,91.36
2022-10-22T10:20:05.336Z,91.29
2022-10-22T10:22:40.817Z,90.91
2022-10-22T10:25:41.443Z,91.39
2022-10-22T10:28:28.469Z,90.46
2022-10-22T10:30:58.132Z,90.47
2022-10-22T10:33:43.489Z,89.92
2022-10-22T10:36:32.957Z,89.98
2022-10-22T10:39:09.866Z,90.05
2022-10-22T10:41:57.241Z,89.66
2022-10-22T10:44:55.959Z,88.94
2022-10-22T10:47:32.902Z,89.22
2022-10-22T10:50:17.177Z,89.64
2022-10-22T10:52:57.418Z,88.44
2022-10-22T10:55:37.178Z,88.86
2022-10-22T10:58:17.696Z,89.36
2022-10-22T11:00:55.453Z,87.52
2022-10-22T11:03:27.952Z,87.93
2022-10-22T11:05:57.964Z,88.61
2022-10-22T11:08:41.773Z,88.26
2022-10-22T11:11:23.843Z,87.74
2022-10-22T11:13:57.338Z,88.20
2022-10-22T11:16:37.124Z,87.75
2022-10-22T11:19:23.021Z,88.42
2022-10-22T11:22:37.375Z,88.79
2022-10-22T11:25:03.696Z,90.03
2022-10-22T11:27:37.450Z,89.36
2022-10-22T11:30:16.588Z,89.20
2022-10-22T11:32:47.293Z,89.13
2022-10-22T11:35:25.689Z,89.06
2022-10-22T11:37:55.819Z,86.39
2022-10-22T11:40:37.586Z,87.09
2022-10-22T11:43:09.730Z,86.77
2022-10-22T11:45:39.139Z,86.82
2022-10-22T11:48:11.689Z,85.82
2022-10-22T11:50:40.998Z,85.31
2022-10-22T11:53:13.498Z,85.57
2022-10-22T11:55:45.367Z,86.21
2022-10-22T11:58:39.469Z,85.84
2022-10-22T12:01:08.920Z,85.56
2022-10-22T12:03:35.259Z,85.38
2022-10-22T12:06:15.643Z,84.31
2022-10-22T12:08:43.874Z,83.41
2022-10-22T12:11:10.218Z,82.56
2022-10-22T12:13:58.444Z,82.99
2022-10-22T12:16:55.591Z,82.36
2022-10-22T12:19:22.812Z,83.19
2022-10-22T12:21:54.343Z,83.02
2022-10-22T12:24:23.116Z,83.38
2022-10-22T12:26:52.338Z,83.87
2022-10-22T12:29:23.633Z,83.43
2022-10-22T12:31:50.155Z,84.51
2022-10-22T12:34:23.801Z,83.33
2022-10-22T12:36:51.939Z,82.23
2022-10-22T12:39:25.447Z,82.87
2022-10-22T12:41:53.378Z,83.19
2022-10-22T12:44:19.924Z,83.42
2022-10-22T12:46:51.779Z,83.97
2022-10-22T12:49:25.114Z,82.53
2022-10-22T12:51:51.512Z,83.12
2022-10-22T12:54:32.026Z,82.88
2022-10-22T12:56:58.899Z,82.94
2022-10-22T12:59:34.855Z,82.37
2022-10-22T13:02:01.700Z,82.23
2022-10-22T13:04:34.945Z,83.30
2022-10-22T13:07:05.786Z,82.83
2022-10-22T13:09:39.206Z,82.74
2022-10-22T13:12:08.502Z,82.12
2022-10-22T13:14:38.124Z,82.42
2022-10-22T13:17:16.182Z,82.68
2022-10-22T13:19:54.691Z,81.87
2022-10-22T13:22:26.923Z,81.16
2022-10-22T13:24:53.590Z,82.93
2022-10-22T13:27:20.273Z,82.71
2022-10-22T13:29:46.746Z,82.29
2022-10-22T13:32:28.909Z,81.19
2022-10-22T13:34:57.699Z,80.78
2022-10-22T13:37:24.928Z,80.88
2022-10-22T13:39:51.348Z,81.58
2022-10-22T13:42:17.717Z,80.55
2022-10-22T13:44:44.100Z,81.12
2022-10-22T13:47:30.061Z,79.64
2022-10-22T13:50:00.222Z,80.61
2022-10-22T13:52:48.144Z,79.28
2022-10-22T13:55:19.038Z,78.79
2022-10-22T13:57:46.199Z,78.35
2022-10-22T14:00:18.854Z,78.04
2022-10-22T14:02:47.795Z,80.30
2022-10-22T14:05:16.384Z,79.21
2022-10-22T14:07:43.096Z,79.45
2022-10-22T14:10:17.160Z,79.81
2022-10-22T14:12:43.957Z,80.22
2022-10-22T14:15:12.821Z,79.86
2022-10-22T14:17:40.688Z,80.00
2022-10-22T14:20:09.942Z,80.10
2022-10-22T14:22:36.268Z,80.51
2022-10-22T14:25:02.618Z,79.36
2022-10-22T14:27:28.941Z,79.93
2022-10-22T14:29:59.396Z,79.81
2022-10-22T14:32:28.223Z,79.77
2022-10-22T14:34:54.560Z,80.72
2022-10-22T14:37:21.091Z,81.30
2022-10-22T14:39:51.837Z,82.96
2022-10-22T14:42:19.860Z,81.34
2022-10-22T14:44:46.832Z,81.83
2022-10-22T14:47:14.667Z,82.40
2022-10-22T14:49:41.112Z,82.53
2022-10-22T14:52:10.547Z,82.88
2022-10-22T14:54:39.335Z,83.57
2022-10-22T14:57:05.801Z,83.83
2022-10-22T14:59:32.273Z,82.84
2022-10-22T15:01:58.695Z,82.04
2022-10-22T15:04:27.102Z,82.20
2022-10-22T15:06:56.297Z,82.42
2022-10-22T15:09:24.116Z,82.58
2022-10-22T15:11:51.051Z,80.66
2022-10-22T15:14:17.453Z,80.33
2022-10-22T15:16:43.861Z,81.84
2022-10-22T15:19:11.165Z,81.89
2022-10-22T15:21:37.643Z,81.91
2022-10-22T15:24:04.750Z,82.47
2022-10-22T15:26:31.152Z,82.95
2022-10-22T15:28:57.624Z,83.29
2022-10-22T15:31:47.579Z,84.92
2022-10-22T15:34:18.998Z,84.30
2022-10-22T15:36:45.400Z,84.58
2022-10-22T15:39:11.813Z,84.88
2022-10-22T15:41:38.328Z,84.31
2022-10-22T15:44:05.955Z,84.84
2022-10-22T15:46:35.315Z,86.32
2022-10-22T15:49:01.996Z,85.98
2022-10-22T15:51:28.481Z,85.12
2022-10-22T15:53:57.891Z,85.03
2022-10-22T15:56:25.549Z,85.85
2022-10-22T15:59:00.232Z,86.28
2022-10-22T16:01:27.422Z,86.72
2022-10-22T16:03:59.934Z,87.95
2022-10-22T16:06:27.479Z,87.78
2022-10-22T16:08:54.872Z,88.43
2022-10-22T16:11:21.366Z,89.25
2022-10-22T16:13:47.763Z,89.79
2022-10-22T16:16:14.255Z,92.61
2022-10-22T16:18:40.580Z,94.43
2022-10-22T16:21:12.143Z,94.00
2022-10-22T16:23:38.480Z,94.40
2022-10-22T16:26:04.909Z,94.89
2022-10-22T16:28:31.339Z,95.25
2022-10-22T16:31:06.181Z,96.54
2022-10-22T16:33:41.287Z,97.90
2022-10-22T16:36:16.585Z,100.00
2022-10-22T16:38:43.166Z,100.00
2022-10-22T16:41:14.090Z,100.00
2022-10-22T16:43:41.687Z,100.00
2022-10-22T16:46:09.196Z,100.00
2022-10-22T16:48:37.738Z,100.00
2022-10-22T16:51:09.143Z,100.00
2022-10-22T16:53:35.646Z,100.00
2022-10-22T16:56:02.466Z,100.00
2022-10-22T16:58:28.881Z,100.00
2022-10-22T17:00:55.554Z,100.00
2022-10-22T17:03:24.557Z,100.00
2022-10-22T17:05:53.862Z,100.00
2022-10-22T17:08:20.262Z,100.00
2022-10-22T17:10:46.723Z,100.00
2022-10-22T17:13:13.137Z,100.00
2022-10-22T17:15:40.404Z,100.00
2022-10-22T17:18:06.716Z,100.00
2022-10-22T17:20:33.103Z,100.00
2022-10-22T17:22:59.527Z,100.00
2022-10-22T17:25:35.089Z,100.00
2022-10-22T17:28:01.462Z,100.00
2022-10-22T17:30:28.736Z,100.00
2022-10-22T17:32:55.149Z,100.00
2022-10-22T17:35:21.564Z,100.00
2022-10-22T17:37:48.217Z,100.00
2022-10-22T17:40:15.591Z,100.00
2022-10-22T17:42:42.205Z,100.00
2022-10-22T17:45:09.058Z,100.00
2022-10-22T17:47:36.437Z,100.00
2022-10-22T17:50:03.480Z,100.00
2022-10-22T17:52:29.856Z,100.00
2022-10-22T17:54:56.370Z,100.00
2022-10-22T17:57:22.698Z,100.00
2022-10-22T17:59:49.114Z,100.00
2022-10-22T18:02:17.677Z,100.00
2022-10-22T18:04:44.295Z,100.00
2022-10-22T18:07:10.810Z,100.00
2022-10-22T18:09:37.244Z,100.00
2022-10-22T18:12:03.698Z,100.00
2022-10-22T18:14:30.156Z,100.00
2022-10-22T18:16:56.504Z,100.00
2022-10-22T18:19:24.425Z,100.00
2022-10-22T18:21:50.833Z,100.00
2022-10-22T18:24:17.838Z,100.00
2022-10-22T18:26:44.600Z,100.00
2022-10-22T18:29:15.845Z,100.00
2022-10-22T18:31:42.511Z,100.00
2022-10-22T18:34:08.923Z,100.00
2022-10-22T18:36:35.267Z,100.00
2022-10-22T18:39:02.219Z,100.00
2022-10-22T18:41:30.170Z,100.00
2022-10-22T18:43:58.936Z,100.00
2022-10-22T18:46:26.380Z,100.00
2022-10-22T18:48:57.193Z,100.00
2022-10-22T18:51:25.249Z,100.00
2022-10-22T18:54:05.301Z,100.00
2022-10-22T18:56:40.899Z,100.00
2022-10-22T18:59:07.270Z,100.00
2022-10-22T19:01:35.395Z,100.00
2022-10-22T19:04:01.962Z,100.00
2022-10-22T19:06:34.539Z,100.00
2022-10-22T19:09:03.697Z,100.00
2022-10-22T19:11:30.163Z,100.00
2022-10-22T19:13:56.812Z,100.00
2022-10-22T19:16:23.476Z,100.00
2022-10-22T19:19:01.819Z,100.00
2022-10-22T19:21:28.170Z,100.00
2022-10-22T19:23:56.354Z,100.00
2022-10-22T19:26:25.340Z,100.00
2022-10-22T19:28:53.333Z,100.00
2022-10-22T19:31:22.193Z,100.00
2022-10-22T19:33:48.869Z,100.00
2022-10-22T19:36:17.359Z,100.00
2022-10-22T19:38:46.227Z,100.00
2022-10-22T19:41:14.865Z,100.00
2022-10-22T19:43:42.848Z,100.00
2022-10-22T19:46:10.218Z,100.00
2022-10-22T19:48:37.594Z,100.00
2022-10-22T19:51:08.419Z,100.00
2022-10-22T19:53:36.607Z,100.00
2022-10-22T19:56:06.302Z,100.00
2022-10-22T19:58:32.941Z,100.00
2022-10-22T20:01:07.527Z,100.00
2022-10-22T20:03:36.223Z,100.00
2022-10-22T20:06:04.377Z,100.00
2022-10-22T20:08:32.011Z,100.00
2022-10-22T20:10:58.503Z,100.00
2022-10-22T20:13:24.914Z,100.00
2022-10-22T20:15:53.412Z,100.00
2022-10-22T20:18:22.241Z,100.00
2022-10-22T20:20:49.333Z,100.00
2022-10-22T20:23:15.718Z,100.00
2022-10-22T20:25:44.093Z,100.00
2022-10-22T20:28:11.520Z,100.00
2022-10-22T20:30:45.489Z,100.00
2022-10-22T20:33:12.399Z,100.00
2022-10-22T20:35:39.245Z,100.00
2022-10-22T20:38:07.372Z,100.00
2022-10-22T20:40:34.294Z,100.00
2022-10-22T20:43:01.740Z,100.00
2022-10-22T20:45:28.643Z,100.00
2022-10-22T20:48:02.006Z,100.00
2022-10-22T20:50:32.078Z,100.00
2022-10-22T20:52:59.209Z,100.00
2022-10-22T20:55:26.302Z,100.00
2022-10-22T20:57:52.848Z,100.00
2022-10-22T21:00:19.268Z,100.00
2022-10-22T21:02:45.809Z,100.00
2022-10-22T21:05:12.179Z,100.00
2022-10-22T21:07:38.826Z,100.00
2022-10-22T21:10:05.824Z,100.00
2022-10-22T21:12:32.288Z,100.00
2022-10-22T21:14:58.660Z,100.00
2022-10-22T21:17:25.006Z,100.00
2022-10-22T21:19:51.343Z,100.00
2022-10-22T21:22:17.738Z,100.00
2022-10-22T21:24:44.061Z,100.00
2022-10-22T21:27:10.513Z,100.00
2022-10-22T21:29:36.879Z,100.00
2022-10-22T21:32:03.230Z,100.00
2022-10-22T21:34:29.730Z,100.00
2022-10-22T21:36:56.056Z,100.00
2022-10-22T21:39:22.395Z,100.00
2022-10-22T21:41:48.758Z,100.00
2022-10-22T21:44:15.110Z,100.00
2022-10-22T21:46:41.558Z,100.00
2022-10-22T21:49:07.905Z,100.00
2022-10-22T21:51:37.905Z,100.00
2022-10-22T21:54:04.686Z,100.00
2022-10-22T21:56:33.716Z,100.00
2022-10-22T21:59:01.335Z,100.00
2022-10-22T22:01:28.159Z,100.00
2022-10-22T22:03:54.927Z,100.00
2022-10-22T22:06:24.143Z,100.00
2022-10-22T22:08:52.649Z,100.00
2022-10-22T22:11:25.059Z,100.00
2022-10-22T22:13:53.309Z,100.00
2022-10-22T22:16:27.131Z,100.00
2022-10-22T22:18:56.658Z,100.00
2022-10-22T22:21:23.061Z,100.00
2022-10-22T22:23:50.627Z,100.00
2022-10-22T22:26:22.083Z,100.00
2022-10-22T22:28:51.681Z,100.00
2022-10-22T22:31:22.142Z,100.00
2022-10-22T22:33:48.586Z,100.00
2022-10-22T22:36:15.124Z,100.00
2022-10-22T22:38:41.810Z,100.00
2022-10-22T22:41:08.950Z,100.00
2022-10-22T22:43:36.111Z,100.00
2022-10-22T22:46:04.827Z,100.00
2022-10-22T22:48:32.151Z,100.00
2022-10-22T22:51:00.050Z,100.00
2022-10-22T22:53:28.007Z,100.00
2022-10-22T22:56:14.439Z,100.00
2022-10-22T22:58:42.097Z,100.00
2022-10-22T23:01:15.755Z,100.00
2022-10-22T23:03:43.327Z,100.00
2022-10-22T23:06:10.155Z,100.00
2022-10-22T23:08:36.776Z,100.00
2022-10-22T23:11:11.861Z,100.00
2022-10-22T23:13:39.076Z,100.00
2022-10-22T23:16:08.471Z,100.00
2022-10-22T23:18:35.692Z,100.00
2022-10-22T23:21:13.090Z,100.00
2022-10-22T23:23:45.403Z,100.00
2022-10-22T23:26:13.819Z,100.00
2022-10-22T23:28:40.786Z,100.00
2022-10-22T23:31:07.741Z,100.00
2022-10-22T23:33:34.928Z,100.00
2022-10-22T23:36:02.024Z,100.00
2022-10-22T23:38:28.724Z,100.00
2022-10-22T23:40:59.181Z,100.00
2022-10-22T23:43:27.127Z,100.00
2022-10-22T23:45:53.827Z,100.00
2022-10-22T23:48:20.574Z,100.00
2022-10-22T23:50:47.767Z,100.00
2022-10-22T23:53:14.410Z,100.00
2022-10-22T23:55:42.163Z,100.00
2022-10-22T23:58:09.103Z,100.00
